Aircraft
UPR1037 PT-BAB ATR-72 500
SBCI
Brig. Lysias Augusto Rodrigues Airport
SBCJ
Carajás Airport
Pilot:: Klebson
Aircraft:: ATR 72-600
Alternate: SWGN
Network: ivao
FLIGHT DETAILS
Distance: 168nm Duration 00h 22m
Cruise Speed: Flight Level: 10000
Validation: Validated Type Charter
Flight Fuel
ZFW: 20948
Block Fuel/Initial FOB: 2551
Flight Fuel: 1719
Cargo
Passengers: 25
Cargo: 120
ROUTE
ROUTE: DCT
REMARKS:
DATE
Date: 26-04-29
Departure Time: 1444
Cargo: 120
FLIGHT DETAILS
Crashed: No
Validator Comments: Validado por Claudenir
Flight Rating: 100
LANDING ANALYSIS
Landing wind: 271º/1 kt
Landing heading: 283º
Landing VS:: -55 ft/min
Landing IAS:: 97 kt
Landing Force G: 1 G
Landing Bank: 1
Landing Pitch: 1
Landing Flaps: 100
Navigation Lights: ON
Landing Lights: ON
Beacon Lights: ON
Strobe Lights: ON
viserfly

ALTITUDE CHART

viserfly

MAIN EVENTS

DATE EVENT IAS ALTITUDE
2026-04-29 14:43:26 FLYacars version 1.3.4 0 564
2026-04-29 14:43:26 Aircraft boarding in progress 0 564
2026-04-29 14:43:26 FLAPS 50% 0 564
2026-04-29 14:43:50 Aircraft taxiing to runway 5 564
2026-04-29 14:44:08 Detected Take-off roll, HDG 286, IAS 123kt, GS 125kt, G-force 1.1g, Pitch -1.6deg, Bank -0.2deg, Wind 270/01kt, Temp 14°C 123 568
2026-04-29 14:44:08 Airborne 123 568
2026-04-29 14:44:10 Gear UP, IAS 132kt, GS 132kt, ALT 50ft AGL 132 611
2026-04-29 14:44:42 FLAPS 0% 152kt, ALT 2230ft 152 2230
2026-04-29 14:47:55 Aircraft on Top Of Climb at 10702ft, IAS 225kt, GS 262kt, HDG 322deg, TAT -5deg, WIND 271/2kt 225 10702
2026-04-29 15:02:44 Aircraft on Top Of Descent at 9489ft, IAS 222kt, GS 253kt, HDG 322deg, TAT -2deg, WIND 271/2kt 222 9489
2026-04-29 15:05:17 Gear DOWN, IAS 190kt, GS 202kt, ALT 4252ft AGL 190 4816
2026-04-29 15:05:18 FLAPS 50% 190kt, ALT 4794ft 190 4794
2026-04-29 15:05:31 FLAPS 100% 141kt, ALT 4345ft 141 4345
2026-04-29 15:06:36 Landed at destination with a landing rate of -55fpm, G-force 1.0g, Pitch 0.9deg, Bank 0.9deg, HDG 283deg, IAS 97kt, GS 101kt, Wind 271/01kt, Temp 14°C 97 2059
2026-04-29 15:06:48 Aircraft taxiing to apron 26 2060
2026-04-29 15:07:01 Aircraft at gate/stand, ground services are moving into position, disembarkation has begun. Remaining FOB 832kg FLYacars v1.3.4 0 2060
viserfly

ACARS DATA

DATE IAS GS ALTITUDE FUEL CONSUMED OAT FLIGHT STATUS
2026-04-29 14:43:56 48 50 564 1166 14 TAXI TO RUNWAY
2026-04-29 14:44:26 125 125 1613 1175 12 INITIAL CLIMB
2026-04-29 14:44:56 207 216 3536 1190 9 CLIMB
2026-04-29 14:45:26 210 228 6426 1209 3 CLIMB
2026-04-29 14:45:56 209 231 7428 1216 1 CLIMB
2026-04-29 14:46:26 208 234 8433 1223 0 CLIMB
2026-04-29 14:46:56 207 236 9430 1230 -2 CLIMB
2026-04-29 14:47:26 208 241 10383 1237 -4 CLIMB
2026-04-29 14:47:56 225 263 10705 1243 -5 ENROUTE
2026-04-29 14:48:26 236 276 10776 1250 -5 ENROUTE
2026-04-29 14:48:56 239 279 10794 1257 -4 ENROUTE
2026-04-29 14:49:26 240 281 10797 1263 -3 ENROUTE
2026-04-29 14:49:56 240 281 10796 1270 -3 ENROUTE
2026-04-29 14:50:26 241 282 10799 1277 -3 ENROUTE
2026-04-29 14:50:56 241 282 10797 1284 -3 ENROUTE
2026-04-29 14:51:26 241 282 10802 1291 -4 ENROUTE
2026-04-29 14:51:56 241 282 10797 1297 -4 ENROUTE
2026-04-29 14:52:26 241 282 10797 1304 -4 ENROUTE
2026-04-29 14:52:56 241 281 10795 1311 -4 ENROUTE
2026-04-29 14:53:26 241 281 10798 1318 -4 ENROUTE
2026-04-29 14:53:56 241 282 10797 1324 -4 ENROUTE
2026-04-29 14:54:26 241 281 10799 1331 -4 ENROUTE
2026-04-29 14:54:56 241 281 10798 1338 -4 ENROUTE
2026-04-29 14:55:26 241 282 10799 1345 -5 ENROUTE
2026-04-29 14:55:56 241 282 10798 1351 -4 ENROUTE
2026-04-29 14:56:26 241 281 10798 1358 -5 ENROUTE
2026-04-29 14:56:56 241 282 10801 1365 -5 ENROUTE
2026-04-29 14:57:26 241 282 10799 1372 -4 ENROUTE
2026-04-29 14:57:56 241 282 10800 1378 -4 ENROUTE
2026-04-29 14:58:26 241 282 10798 1385 -5 ENROUTE
2026-04-29 14:58:56 241 281 10797 1399 -5 ENROUTE
2026-04-29 14:59:26 241 282 10797 1426 -5 ENROUTE
2026-04-29 14:59:56 241 281 10797 1453 -5 ENROUTE
2026-04-29 15:00:26 241 282 10796 1480 -5 ENROUTE
2026-04-29 15:00:56 241 281 10799 1507 -5 ENROUTE
2026-04-29 15:01:26 241 281 10798 1534 -5 ENROUTE
2026-04-29 15:01:56 241 282 10797 1561 -5 ENROUTE
2026-04-29 15:02:26 241 281 10795 1588 -5 ENROUTE
2026-04-29 15:02:56 219 244 7899 1609 0 DESCENT
2026-04-29 15:03:26 195 209 5133 1627 7 ENROUTE
2026-04-29 15:03:56 177 189 5096 1645 6 ENROUTE
2026-04-29 15:04:26 177 192 5091 1663 6 ENROUTE
2026-04-29 15:04:56 176 191 5109 1681 6 ENROUTE
2026-04-29 15:05:26 145 153 4540 1698 7 ENROUTE
2026-04-29 15:05:56 118 120 2800 1710 13 ON FINAL
2026-04-29 15:06:26 107 111 2067 1714 14 ON FINAL
2026-04-29 15:06:56 0 0 2060 1718 14 TAXI TO APRON
  • Join our VA!

    It has been 11 years of great learning, friendships, and stories.

  • Sign up now!